createdAt,value
2018-10-11T00:01:06.488Z,101866.83
2018-10-11T00:03:34.896Z,101871.48
2018-10-11T00:06:03.241Z,101868.45
2018-10-11T00:08:31.624Z,101869.18
2018-10-11T00:10:59.961Z,101864.30
2018-10-11T00:13:28.350Z,101863.75
2018-10-11T00:15:56.718Z,101876.72
2018-10-11T00:18:25.077Z,101870.46
2018-10-11T00:20:53.437Z,101868.20
2018-10-11T00:23:21.813Z,101868.98
2018-10-11T00:25:50.153Z,101867.16
2018-10-11T00:28:18.503Z,101870.16
2018-10-11T00:30:46.931Z,101869.27
2018-10-11T00:33:15.216Z,101865.45
2018-10-11T00:35:43.577Z,101864.62
2018-10-11T00:38:11.941Z,101854.72
2018-10-11T00:40:40.272Z,101856.81
2018-10-11T00:43:08.621Z,101847.84
2018-10-11T00:45:37.304Z,101844.52
2018-10-11T00:48:06.713Z,101843.77
2018-10-11T00:50:35.063Z,101846.78
2018-10-11T00:53:03.417Z,101845.27
2018-10-11T00:55:31.884Z,101847.03
2018-10-11T00:58:00.226Z,101845.23
2018-10-11T01:00:28.565Z,101842.55
2018-10-11T01:02:56.909Z,101842.94
2018-10-11T01:05:25.244Z,101839.28
2018-10-11T01:07:57.293Z,101832.30
2018-10-11T01:10:25.632Z,101838.50
2018-10-11T01:12:54.068Z,101829.67
2018-10-11T01:15:22.397Z,101823.08
2018-10-11T01:17:50.733Z,101812.33
2018-10-11T01:20:19.058Z,101816.45
2018-10-11T01:22:47.837Z,101809.84
2018-10-11T01:25:16.217Z,101813.52
2018-10-11T01:27:44.560Z,101807.30
2018-10-11T01:30:13.034Z,101806.97
2018-10-11T01:32:41.274Z,101807.13
2018-10-11T01:35:09.597Z,101804.75
2018-10-11T01:37:37.992Z,101808.02
2018-10-11T01:40:06.464Z,101800.17
2018-10-11T01:42:34.925Z,101800.17
2018-10-11T01:45:03.265Z,101798.77
2018-10-11T01:47:31.704Z,101800.88
2018-10-11T01:50:00.028Z,101798.98
2018-10-11T01:52:29.374Z,101794.65
2018-10-11T01:54:57.731Z,101789.99
2018-10-11T01:57:26.085Z,101783.81
2018-10-11T01:59:54.421Z,101778.47
2018-10-11T02:02:22.781Z,101774.18
2018-10-11T02:04:51.108Z,101776.59
2018-10-11T02:07:19.478Z,101773.83
2018-10-11T02:09:47.806Z,101773.56
2018-10-11T02:12:16.173Z,101770.97
2018-10-11T02:14:44.497Z,101769.19
2018-10-11T02:17:12.835Z,101762.60
2018-10-11T02:19:41.177Z,101759.14
2018-10-11T02:22:10.614Z,101751.23
2018-10-11T02:24:41.081Z,101757.59
2018-10-11T02:27:09.451Z,101753.20
2018-10-11T02:29:39.125Z,101744.12
2018-10-11T02:32:07.693Z,101739.30
2018-10-11T02:34:35.964Z,101737.67
2018-10-11T02:37:04.281Z,101730.48
2018-10-11T02:39:32.614Z,101720.05
2018-10-11T02:42:00.932Z,101722.45
2018-10-11T02:44:29.260Z,101715.96
2018-10-11T02:46:57.597Z,101715.69
2018-10-11T02:49:26.013Z,101714.99
2018-10-11T02:51:54.377Z,101710.95
2018-10-11T02:54:22.781Z,101710.69
2018-10-11T02:56:55.299Z,101712.61
2018-10-11T02:59:31.592Z,101712.36
2018-10-11T03:02:00.760Z,101706.61
2018-10-11T03:04:29.834Z,101698.71
2018-10-11T03:06:58.872Z,101696.42
2018-10-11T03:09:27.533Z,101695.11
2018-10-11T03:11:55.973Z,101690.94
2018-10-11T03:14:24.660Z,101688.44
2018-10-11T03:16:53.413Z,101689.41
2018-10-11T03:19:21.789Z,101687.61
2018-10-11T03:21:50.161Z,101684.85
2018-10-11T03:24:18.534Z,101684.42
2018-10-11T03:26:46.880Z,101679.50
2018-10-11T03:29:15.237Z,101681.66
2018-10-11T03:31:43.580Z,101678.58
2018-10-11T03:34:11.948Z,101674.72
2018-10-11T03:36:40.409Z,101675.81
2018-10-11T03:39:08.960Z,101671.39
2018-10-11T03:41:37.304Z,101670.69
2018-10-11T03:44:05.672Z,101677.63
2018-10-11T03:46:35.013Z,101679.77
2018-10-11T03:49:03.377Z,101679.28
2018-10-11T03:51:31.750Z,101673.63
2018-10-11T03:54:00.501Z,101666.70
2018-10-11T03:56:28.904Z,101666.81
2018-10-11T03:58:58.988Z,101675.16
2018-10-11T04:01:27.382Z,101675.06
2018-10-11T04:03:56.458Z,101675.37
2018-10-11T04:06:25.885Z,101666.14
2018-10-11T04:08:54.754Z,101658.36
2018-10-11T04:11:25.276Z,101648.54
2018-10-11T04:13:53.611Z,101651.79
2018-10-11T04:16:21.940Z,101659.42
2018-10-11T04:18:50.409Z,101663.97
2018-10-11T04:21:18.767Z,101661.27
2018-10-11T04:23:47.096Z,101666.19
2018-10-11T04:26:15.522Z,101664.39
2018-10-11T04:28:44.953Z,101652.58
2018-10-11T04:31:13.281Z,101649.68
2018-10-11T04:33:41.664Z,101642.31
2018-10-11T04:36:10.090Z,101637.88
2018-10-11T04:38:38.401Z,101639.41
2018-10-11T04:41:07.373Z,101632.02
2018-10-11T04:43:35.707Z,101627.83
2018-10-11T04:46:04.062Z,101627.34
2018-10-11T04:48:32.434Z,101622.80
2018-10-11T04:51:01.851Z,101628.12
2018-10-11T04:53:30.181Z,101629.57
2018-10-11T04:55:58.565Z,101631.98
2018-10-11T04:58:26.915Z,101635.45
2018-10-11T05:00:55.293Z,101632.74
2018-10-11T05:03:23.671Z,101628.09
2018-10-11T05:05:52.031Z,101633.36
2018-10-11T05:08:20.385Z,101640.30
2018-10-11T05:10:48.840Z,101645.03
2018-10-11T05:13:17.694Z,101647.31
2018-10-11T05:15:46.047Z,101641.48
2018-10-11T05:18:17.013Z,101639.41
2018-10-11T05:20:45.529Z,101643.98
2018-10-11T05:23:14.901Z,101650.06
2018-10-11T05:25:43.337Z,101652.45
2018-10-11T05:28:13.757Z,101654.33
2018-10-11T05:30:44.638Z,101655.38
2018-10-11T05:33:13.549Z,101656.61
2018-10-11T05:35:41.902Z,101661.06
2018-10-11T05:38:10.264Z,101665.97
2018-10-11T05:40:38.632Z,101661.95
2018-10-11T05:43:07.060Z,101664.55
2018-10-11T05:45:36.368Z,101669.57
2018-10-11T05:48:04.773Z,101673.05
2018-10-11T05:50:33.469Z,101674.41
2018-10-11T05:53:01.884Z,101672.61
2018-10-11T05:55:30.317Z,101670.52
2018-10-11T05:57:58.721Z,101663.80
2018-10-11T06:00:27.145Z,101667.23
2018-10-11T06:03:01.057Z,101664.15
2018-10-11T06:05:31.129Z,101665.68
2018-10-11T06:08:00.647Z,101657.19
2018-10-11T06:10:31.611Z,101671.17
2018-10-11T06:13:01.091Z,101668.85
2018-10-11T06:15:29.636Z,101671.70
2018-10-11T06:17:58.051Z,101674.90
2018-10-11T06:20:26.429Z,101673.85
2018-10-11T06:22:54.769Z,101677.97
2018-10-11T06:25:25.141Z,101681.17
2018-10-11T06:27:53.553Z,101683.75
2018-10-11T06:30:21.962Z,101682.92
2018-10-11T06:32:50.468Z,101689.03
2018-10-11T06:35:18.925Z,101686.55
2018-10-11T06:37:47.284Z,101682.42
2018-10-11T06:40:15.652Z,101678.53
2018-10-11T06:42:44.843Z,101674.58
2018-10-11T06:45:14.432Z,101675.62
2018-10-11T06:47:45.453Z,101668.44
2018-10-11T06:50:14.943Z,101674.13
2018-10-11T06:52:43.308Z,101675.48
2018-10-11T06:55:11.703Z,101668.33
2018-10-11T06:57:40.041Z,101670.80
2018-10-11T07:00:08.397Z,101663.23
2018-10-11T07:02:36.750Z,101661.55
2018-10-11T07:05:05.151Z,101663.25
2018-10-11T07:07:33.516Z,101662.18
2018-10-11T07:10:01.905Z,101663.38
2018-10-11T07:12:31.300Z,101653.77
2018-10-11T07:14:59.660Z,101662.38
2018-10-11T07:17:28.033Z,101659.95
2018-10-11T07:19:56.392Z,101661.02
2018-10-11T07:22:24.748Z,101658.87
2018-10-11T07:24:53.148Z,101647.73
2018-10-11T07:27:21.504Z,101649.48
2018-10-11T07:29:50.882Z,101648.11
2018-10-11T07:32:24.833Z,101650.42
2018-10-11T07:34:53.322Z,101649.36
2018-10-11T07:37:21.632Z,101646.87
2018-10-11T07:39:50.756Z,101646.45
2018-10-11T07:42:19.142Z,101648.75
2018-10-11T07:44:47.574Z,101649.61
2018-10-11T07:47:15.978Z,101647.16
2018-10-11T07:49:44.349Z,101639.60
2018-10-11T07:52:12.740Z,101639.03
2018-10-11T07:54:41.119Z,101643.84
2018-10-11T07:57:09.497Z,101642.00
2018-10-11T07:59:37.860Z,101643.05
2018-10-11T08:02:06.268Z,101634.58
2018-10-11T08:04:34.627Z,101631.09
2018-10-11T08:07:03.083Z,101629.52
2018-10-11T08:09:31.486Z,101631.66
2018-10-11T08:12:00.091Z,101624.70
2018-10-11T08:14:29.306Z,101619.89
2018-10-11T08:16:57.799Z,101622.08
2018-10-11T08:19:26.381Z,101633.00
2018-10-11T08:21:54.402Z,101638.29
2018-10-11T08:24:22.815Z,101631.52
2018-10-11T08:26:51.210Z,101630.02
2018-10-11T08:29:19.519Z,101630.67
2018-10-11T08:31:49.064Z,101635.89
2018-10-11T08:34:17.309Z,101629.08
2018-10-11T08:36:46.753Z,101622.81
2018-10-11T08:39:15.168Z,101619.22
2018-10-11T08:41:43.548Z,101612.14
2018-10-11T08:44:13.393Z,101612.30
2018-10-11T08:46:42.912Z,101617.45
2018-10-11T08:49:11.374Z,101625.28
2018-10-11T08:51:39.748Z,101626.14
2018-10-11T08:54:15.336Z,101624.52
2018-10-11T08:56:43.785Z,101618.55
2018-10-11T08:59:13.337Z,101605.25
2018-10-11T09:01:41.647Z,101603.31
2018-10-11T09:04:10.092Z,101591.61
2018-10-11T09:06:38.411Z,101583.38
2018-10-11T09:09:09.850Z,101585.43
2018-10-11T09:11:38.307Z,101587.09
2018-10-11T09:14:06.811Z,101590.05
2018-10-11T09:16:35.533Z,101583.76
2018-10-11T09:19:04.054Z,101587.57
2018-10-11T09:21:33.050Z,101579.35
2018-10-11T09:24:01.422Z,101588.86
2018-10-11T09:26:29.861Z,101592.79
2018-10-11T09:28:58.264Z,101597.88
2018-10-11T09:31:26.663Z,101610.20
2018-10-11T09:33:55.061Z,101620.58
2018-10-11T09:36:24.558Z,101626.66
2018-10-11T09:38:53.542Z,101620.70
2018-10-11T09:41:22.012Z,101616.77
2018-10-11T09:43:50.361Z,101605.42
2018-10-11T09:46:18.805Z,101602.95
2018-10-11T09:48:47.208Z,101622.23
2018-10-11T09:51:15.549Z,101616.27
2018-10-11T09:53:43.965Z,101607.70
2018-10-11T09:56:12.340Z,101608.11
2018-10-11T09:58:40.716Z,101605.77
2018-10-11T10:01:16.524Z,101596.17
2018-10-11T10:03:44.913Z,101587.88
2018-10-11T10:06:13.293Z,101597.45
2018-10-11T10:08:41.668Z,101591.67
2018-10-11T10:11:10.081Z,101599.19
2018-10-11T10:13:38.450Z,101606.00
2018-10-11T10:16:06.829Z,101607.02
2018-10-11T10:18:35.181Z,101606.03
2018-10-11T10:21:03.614Z,101606.82
2018-10-11T10:23:31.945Z,101600.19
2018-10-11T10:26:00.321Z,101592.54
2018-10-11T10:28:28.707Z,101581.38
2018-10-11T10:30:58.113Z,101586.88
2018-10-11T10:33:26.464Z,101588.20
2018-10-11T10:35:54.834Z,101589.84
2018-10-11T10:38:25.234Z,101587.25
2018-10-11T10:40:53.657Z,101600.16
2018-10-11T10:43:22.021Z,101606.69
2018-10-11T10:45:50.406Z,101607.64
2018-10-11T10:48:20.783Z,101608.66
2018-10-11T10:50:49.138Z,101611.47
2018-10-11T10:53:17.572Z,101596.67
2018-10-11T10:55:45.959Z,101578.52
2018-10-11T10:58:14.342Z,101577.70
2018-10-11T11:00:42.860Z,101575.36
2018-10-11T11:03:11.228Z,101572.72
2018-10-11T11:05:39.629Z,101566.60
2018-10-11T11:08:08.089Z,101567.48
2018-10-11T11:10:36.485Z,101562.38
2018-10-11T11:13:05.991Z,101555.55
2018-10-11T11:15:34.389Z,101543.86
2018-10-11T11:18:03.785Z,101547.08
2018-10-11T11:20:32.141Z,101551.50
2018-10-11T11:23:00.541Z,101541.63
2018-10-11T11:25:30.893Z,101547.74
2018-10-11T11:27:59.281Z,101528.73
2018-10-11T11:30:27.751Z,101519.05
2018-10-11T11:32:56.169Z,101519.94
2018-10-11T11:35:24.514Z,101519.49
2018-10-11T11:37:53.865Z,101520.28
2018-10-11T11:40:22.221Z,101516.28
2018-10-11T11:42:50.598Z,101515.13
2018-10-11T11:45:18.943Z,101513.02
2018-10-11T11:47:47.281Z,101510.81
2018-10-11T11:50:15.624Z,101506.12
2018-10-11T11:52:44.924Z,101524.19
2018-10-11T11:55:14.305Z,101523.94
2018-10-11T11:57:42.732Z,101519.05
2018-10-11T12:00:12.175Z,101521.77
2018-10-11T12:02:44.637Z,101510.76
2018-10-11T12:05:13.098Z,101510.52
2018-10-11T12:07:42.068Z,101505.30
2018-10-11T12:10:10.477Z,101511.12
2018-10-11T12:13:12.609Z,101513.38
2018-10-11T12:15:42.337Z,101514.94
2018-10-11T12:18:11.622Z,101512.40
2018-10-11T12:20:41.150Z,101506.06
2018-10-11T12:23:10.528Z,101494.64
2018-10-11T12:25:38.986Z,101486.23
2018-10-11T12:28:07.767Z,101482.70
2018-10-11T12:30:36.431Z,101481.45
2018-10-11T12:33:06.525Z,101477.94
2018-10-11T12:35:35.938Z,101490.72
2018-10-11T12:38:04.305Z,101479.41
2018-10-11T12:40:32.701Z,101484.75
2018-10-11T12:43:01.097Z,101484.75
2018-10-11T12:45:29.477Z,101484.12
2018-10-11T12:47:57.845Z,101488.26
2018-10-11T12:50:26.274Z,101491.97
2018-10-11T12:52:54.618Z,101488.87
2018-10-11T12:55:24.017Z,101485.41
2018-10-11T12:57:53.389Z,101487.31
2018-10-11T13:00:21.768Z,101495.53
2018-10-11T13:02:50.221Z,101504.27
2018-10-11T13:05:18.540Z,101509.77
2018-10-11T13:07:48.966Z,101510.41
2018-10-11T13:10:17.330Z,101514.30
2018-10-11T13:12:45.685Z,101508.75
2018-10-11T13:15:14.296Z,101512.83
2018-10-11T13:17:43.976Z,101510.07
2018-10-11T13:20:11.888Z,101504.30
2018-10-11T13:22:40.308Z,101502.96
2018-10-11T13:25:10.688Z,101512.47
2018-10-11T13:27:40.121Z,101513.00
2018-10-11T13:30:09.616Z,101512.38
2018-10-11T13:32:37.964Z,101503.70
2018-10-11T13:35:07.076Z,101500.91
2018-10-11T13:37:35.336Z,101497.06
2018-10-11T13:40:03.855Z,101499.60
2018-10-11T13:42:32.221Z,101493.14
2018-10-11T13:45:01.599Z,101494.02
2018-10-11T13:47:29.958Z,101495.91
2018-10-11T13:49:59.314Z,101482.34
2018-10-11T13:52:27.677Z,101493.48
2018-10-11T13:54:56.101Z,101492.41
2018-10-11T13:57:26.845Z,101483.91
2018-10-11T13:59:52.949Z,101491.02
2018-10-11T14:02:21.337Z,101494.00
2018-10-11T14:04:51.827Z,101497.73
2018-10-11T14:07:20.238Z,101493.63
2018-10-11T14:09:48.623Z,101496.20
2018-10-11T14:12:16.996Z,101490.15
2018-10-11T14:14:45.345Z,101499.25
2018-10-11T14:17:13.701Z,101495.92
2018-10-11T14:19:48.047Z,101496.59
2018-10-11T14:22:16.397Z,101511.63
2018-10-11T14:24:44.769Z,101509.20
2018-10-11T14:27:13.148Z,101509.91
2018-10-11T14:29:41.533Z,101509.59
2018-10-11T14:32:09.917Z,101503.11
2018-10-11T14:34:39.301Z,101502.98
2018-10-11T14:37:07.842Z,101501.34
2018-10-11T14:39:36.057Z,101492.81
2018-10-11T14:42:04.475Z,101485.00
2018-10-11T14:44:32.812Z,101483.20
2018-10-11T14:47:01.200Z,101480.53
2018-10-11T14:49:29.598Z,101468.55
2018-10-11T14:51:57.960Z,101467.22
2018-10-11T14:54:26.341Z,101463.53
2018-10-11T14:56:56.742Z,101464.91
2018-10-11T14:59:25.110Z,101468.19
2018-10-11T15:01:53.449Z,101472.14
2018-10-11T15:04:21.807Z,101456.87
2018-10-11T15:06:50.178Z,101466.88
2018-10-11T15:09:18.573Z,101467.51
2018-10-11T15:11:46.993Z,101468.34
2018-10-11T15:14:15.320Z,101462.90
2018-10-11T15:16:43.749Z,101452.22
2018-10-11T15:19:12.105Z,101442.72
2018-10-11T15:21:40.465Z,101443.98
2018-10-11T15:24:09.221Z,101444.73
2018-10-11T15:26:39.667Z,101450.01
2018-10-11T15:29:09.067Z,101455.92
2018-10-11T15:31:37.461Z,101456.94
2018-10-11T15:34:05.824Z,101467.98
2018-10-11T15:36:34.197Z,101478.53
2018-10-11T15:39:04.282Z,101467.58
2018-10-11T15:41:32.641Z,101477.48
2018-10-11T15:44:00.988Z,101478.77
2018-10-11T15:46:29.401Z,101483.78
2018-10-11T15:48:57.749Z,101485.86
2018-10-11T15:51:26.195Z,101488.67
2018-10-11T15:53:54.586Z,101496.67
2018-10-11T15:56:22.920Z,101498.37
2018-10-11T15:58:51.300Z,101501.15
2018-10-11T16:01:19.695Z,101498.96
2018-10-11T16:03:48.108Z,101499.20
2018-10-11T16:06:16.568Z,101501.36
2018-10-11T16:08:44.928Z,101497.09
2018-10-11T16:11:13.272Z,101490.70
2018-10-11T16:13:41.714Z,101496.58
2018-10-11T16:16:10.032Z,101505.34
2018-10-11T16:18:38.418Z,101506.08
2018-10-11T16:21:09.425Z,101507.77
2018-10-11T16:23:37.809Z,101507.44
2018-10-11T16:27:09.251Z,101518.78
2018-10-11T16:29:38.668Z,101519.83
2018-10-11T16:32:07.076Z,101525.47
2018-10-11T16:37:26.178Z,101527.77
2018-10-11T16:39:54.554Z,101520.48
2018-10-11T16:42:22.941Z,101521.63
2018-10-11T16:44:51.357Z,101532.42
2018-10-11T16:47:19.745Z,101538.53
2018-10-11T16:49:48.212Z,101536.69
2018-10-11T16:52:16.520Z,101543.61
2018-10-11T16:54:45.352Z,101541.55
2018-10-11T16:57:15.128Z,101549.14
2018-10-11T16:59:45.017Z,101548.81
2018-10-11T17:02:13.629Z,101555.58
2018-10-11T17:04:42.016Z,101554.55
2018-10-11T17:07:10.401Z,101550.41
2018-10-11T17:09:38.803Z,101564.29
2018-10-11T17:12:07.153Z,101554.47
2018-10-11T17:14:35.553Z,101559.27
2018-10-11T17:17:03.928Z,101556.45
2018-10-11T17:19:32.319Z,101560.89
2018-10-11T17:22:00.786Z,101566.18
2018-10-11T17:24:33.092Z,101568.13
2018-10-11T17:27:01.804Z,101572.39
2018-10-11T17:29:30.239Z,101571.84
2018-10-11T17:31:58.964Z,101572.33
2018-10-11T17:34:27.458Z,101569.29
2018-10-11T17:36:55.809Z,101564.91
2018-10-11T17:39:24.165Z,101562.53
2018-10-11T17:41:52.539Z,101572.13
2018-10-11T17:44:20.916Z,101574.93
2018-10-11T17:46:49.308Z,101569.41
2018-10-11T17:49:17.689Z,101567.05
2018-10-11T17:51:46.084Z,101569.95
2018-10-11T17:54:14.464Z,101567.36
2018-10-11T17:56:42.947Z,101559.08
2018-10-11T17:59:11.326Z,101560.36
2018-10-11T18:01:39.709Z,101561.06
2018-10-11T18:04:08.166Z,101561.97
2018-10-11T18:06:37.272Z,101557.17
2018-10-11T18:09:07.408Z,101552.47
2018-10-11T18:11:37.796Z,101552.27
2018-10-11T18:14:06.770Z,101547.67
2018-10-11T18:16:35.151Z,101548.50
2018-10-11T18:19:03.593Z,101549.34
2018-10-11T18:21:31.979Z,101551.98
2018-10-11T18:24:00.429Z,101547.95
2018-10-11T18:26:28.809Z,101545.35
2018-10-11T18:28:57.260Z,101545.14
2018-10-11T18:31:25.653Z,101551.27
2018-10-11T18:33:54.053Z,101546.63
2018-10-11T18:36:22.526Z,101556.81
2018-10-11T18:38:50.877Z,101561.14
2018-10-11T18:41:19.477Z,101566.77
2018-10-11T18:43:47.848Z,101563.79
2018-10-11T18:46:16.261Z,101567.27
2018-10-11T18:48:44.649Z,101568.37
2018-10-11T18:51:13.030Z,101575.36
2018-10-11T18:53:41.403Z,101570.95
2018-10-11T18:56:09.953Z,101569.80
2018-10-11T18:58:38.342Z,101568.02
2018-10-11T19:01:06.730Z,101565.77
2018-10-11T19:03:36.231Z,101567.42
2018-10-11T19:06:05.726Z,101569.36
2018-10-11T19:08:34.089Z,101558.42
2018-10-11T19:11:02.476Z,101559.47
2018-10-11T19:13:32.905Z,101552.75
2018-10-11T19:16:02.375Z,101547.59
2018-10-11T19:18:34.060Z,101549.25
2018-10-11T19:21:04.321Z,101551.41
2018-10-11T19:23:32.725Z,101549.52
2018-10-11T19:26:01.132Z,101551.84
2018-10-11T19:28:29.743Z,101547.75
2018-10-11T19:31:00.852Z,101550.39
2018-10-11T19:33:29.248Z,101557.69
2018-10-11T19:35:57.612Z,101564.41
2018-10-11T19:38:26.997Z,101565.22
2018-10-11T19:40:55.393Z,101561.67
2018-10-11T19:43:23.756Z,101567.41
2018-10-11T19:45:52.728Z,101569.89
2018-10-11T19:48:22.216Z,101561.80
2018-10-11T19:50:50.737Z,101566.89
2018-10-11T19:53:19.170Z,101564.26
2018-10-11T19:55:47.557Z,101566.35
2018-10-11T19:58:16.492Z,101566.76
2018-10-11T20:00:44.926Z,101566.48
2018-10-11T20:03:13.289Z,101563.44
2018-10-11T20:05:42.752Z,101569.37
2018-10-11T20:08:11.246Z,101567.34
2018-10-11T20:10:39.545Z,101570.84
2018-10-11T20:13:07.964Z,101573.28
2018-10-11T20:15:37.445Z,101572.88
2018-10-11T20:18:05.925Z,101579.83
2018-10-11T20:20:34.361Z,101573.49
2018-10-11T20:23:02.821Z,101569.77
2018-10-11T20:25:31.194Z,101573.03
2018-10-11T20:28:00.573Z,101583.35
2018-10-11T20:30:29.054Z,101582.20
2018-10-11T20:32:57.496Z,101581.03
2018-10-11T20:35:25.838Z,101583.75
2018-10-11T20:37:55.357Z,101576.58
2018-10-11T20:40:23.721Z,101576.99
2018-10-11T20:42:52.087Z,101576.73
2018-10-11T20:45:20.548Z,101582.31
2018-10-11T20:47:48.960Z,101581.98
2018-10-11T20:50:17.333Z,101584.88
2018-10-11T20:52:45.731Z,101587.48
2018-10-11T20:55:14.148Z,101584.50
2018-10-11T20:57:42.501Z,101589.48
2018-10-11T21:00:11.193Z,101588.23
2018-10-11T21:02:39.617Z,101594.66
2018-10-11T21:05:08.032Z,101596.27
2018-10-11T21:07:36.545Z,101591.59
2018-10-11T21:10:06.690Z,101588.78
2018-10-11T21:12:35.080Z,101595.16
2018-10-11T21:15:03.598Z,101591.63
2018-10-11T21:17:32.017Z,101589.40
2018-10-11T21:20:00.430Z,101591.47
2018-10-11T21:22:28.805Z,101594.19
2018-10-11T21:24:57.165Z,101595.45
2018-10-11T21:27:25.549Z,101596.83
2018-10-11T21:29:54.065Z,101594.52
2018-10-11T21:32:22.429Z,101594.23
2018-10-11T21:34:50.800Z,101596.61
2018-10-11T21:37:19.173Z,101594.37
2018-10-11T21:39:47.535Z,101587.71
2018-10-11T21:42:15.965Z,101587.52
2018-10-11T21:44:45.366Z,101584.16
2018-10-11T21:47:13.789Z,101580.00
2018-10-11T21:49:42.176Z,101578.69
2018-10-11T21:52:10.801Z,101580.00
2018-10-11T21:54:39.172Z,101583.62
2018-10-11T21:57:07.780Z,101585.91
2018-10-11T21:59:36.185Z,101591.59
2018-10-11T22:02:04.529Z,101585.34
2018-10-11T22:04:32.992Z,101591.26
2018-10-11T22:07:01.412Z,101584.80
2018-10-11T22:09:29.826Z,101586.66
2018-10-11T22:11:58.232Z,101591.26
2018-10-11T22:14:26.691Z,101600.41
2018-10-11T22:16:55.481Z,101601.33
2018-10-11T22:19:24.385Z,101599.72
2018-10-11T22:21:52.954Z,101594.78
2018-10-11T22:24:21.320Z,101590.82
2018-10-11T22:26:51.646Z,101584.13
2018-10-11T22:29:20.061Z,101583.10
2018-10-11T22:31:49.539Z,101581.58
2018-10-11T22:34:17.961Z,101584.70
2018-10-11T22:36:46.421Z,101584.22
2018-10-11T22:39:14.757Z,101583.92
2018-10-11T22:41:44.173Z,101587.11
2018-10-11T22:44:12.983Z,101583.24
2018-10-11T22:46:42.073Z,101582.27
2018-10-11T22:49:10.971Z,101577.97
2018-10-11T22:51:39.913Z,101575.19
2018-10-11T22:54:09.024Z,101578.95
2018-10-11T22:56:37.413Z,101571.95
2018-10-11T22:59:06.096Z,101580.70
2018-10-11T23:01:34.496Z,101587.30
2018-10-11T23:04:02.937Z,101588.62
2018-10-11T23:06:31.386Z,101585.69
2018-10-11T23:08:59.800Z,101584.52
2018-10-11T23:11:28.227Z,101577.02
2018-10-11T23:13:56.765Z,101583.42
2018-10-11T23:16:25.424Z,101574.09
2018-10-11T23:18:53.814Z,101582.93
2018-10-11T23:21:22.228Z,101586.75
2018-10-11T23:23:50.653Z,101587.58
2018-10-11T23:26:19.064Z,101581.88
2018-10-11T23:28:47.468Z,101581.23
2018-10-11T23:31:15.848Z,101578.39
2018-10-11T23:33:44.304Z,101570.36
2018-10-11T23:36:13.789Z,101573.83
2018-10-11T23:38:42.176Z,101579.92
2018-10-11T23:41:10.537Z,101575.95
2018-10-11T23:43:39.143Z,101577.14
2018-10-11T23:46:08.648Z,101577.91
2018-10-11T23:48:36.994Z,101574.39
2018-10-11T23:51:05.401Z,101577.14
2018-10-11T23:53:33.860Z,101586.52
2018-10-11T23:56:02.742Z,101580.98
2018-10-11T23:58:31.097Z,101579.63
